sensor_id;sensor_type;location;lat;lon;timestamp;P1;durP1;ratioP1;P2;durP2;ratioP2
12966;SDS011;6548;49.996;8.238;2022-08-14T00:00:47;6.25;;;4.75;;
12966;SDS011;6548;49.996;8.238;2022-08-14T00:03:20;4.82;;;4.15;;
12966;SDS011;6548;49.996;8.238;2022-08-14T00:05:48;4.60;;;4.20;;
12966;SDS011;6548;49.996;8.238;2022-08-14T00:08:14;5.80;;;4.50;;
12966;SDS011;6548;49.996;8.238;2022-08-14T00:10:40;5.45;;;4.35;;
12966;SDS011;6548;49.996;8.238;2022-08-14T00:13:06;5.28;;;4.15;;
12966;SDS011;6548;49.996;8.238;2022-08-14T00:15:37;6.72;;;4.63;;
12966;SDS011;6548;49.996;8.238;2022-08-14T00:18:05;5.28;;;4.78;;
12966;SDS011;6548;49.996;8.238;2022-08-14T00:20:33;5.82;;;5.15;;
12966;SDS011;6548;49.996;8.238;2022-08-14T00:23:00;6.07;;;5.18;;
12966;SDS011;6548;49.996;8.238;2022-08-14T00:25:26;5.25;;;4.75;;
12966;SDS011;6548;49.996;8.238;2022-08-14T00:27:52;6.82;;;4.50;;
12966;SDS011;6548;49.996;8.238;2022-08-14T00:30:19;6.80;;;5.22;;
12966;SDS011;6548;49.996;8.238;2022-08-14T00:32:45;7.15;;;5.03;;
12966;SDS011;6548;49.996;8.238;2022-08-14T00:35:10;6.13;;;4.93;;
12966;SDS011;6548;49.996;8.238;2022-08-14T00:37:39;6.03;;;4.80;;
12966;SDS011;6548;49.996;8.238;2022-08-14T00:40:07;5.68;;;5.07;;
12966;SDS011;6548;49.996;8.238;2022-08-14T00:42:35;7.57;;;5.45;;
12966;SDS011;6548;49.996;8.238;2022-08-14T00:45:00;6.78;;;4.53;;
12966;SDS011;6548;49.996;8.238;2022-08-14T00:47:26;8.30;;;5.60;;
12966;SDS011;6548;49.996;8.238;2022-08-14T00:49:52;6.63;;;5.35;;
12966;SDS011;6548;49.996;8.238;2022-08-14T00:52:20;6.75;;;5.60;;
12966;SDS011;6548;49.996;8.238;2022-08-14T00:54:48;5.72;;;4.43;;
12966;SDS011;6548;49.996;8.238;2022-08-14T00:57:17;6.07;;;4.80;;
12966;SDS011;6548;49.996;8.238;2022-08-14T00:59:48;5.90;;;5.10;;
12966;SDS011;6548;49.996;8.238;2022-08-14T01:02:15;7.30;;;5.18;;
12966;SDS011;6548;49.996;8.238;2022-08-14T01:04:44;7.63;;;5.20;;
12966;SDS011;6548;49.996;8.238;2022-08-14T01:07:11;6.07;;;5.47;;
12966;SDS011;6548;49.996;8.238;2022-08-14T01:09:41;6.68;;;5.32;;
12966;SDS011;6548;49.996;8.238;2022-08-14T01:12:08;5.85;;;5.10;;
12966;SDS011;6548;49.996;8.238;2022-08-14T01:14:34;7.72;;;5.28;;
12966;SDS011;6548;49.996;8.238;2022-08-14T01:17:00;6.97;;;5.28;;
12966;SDS011;6548;49.996;8.238;2022-08-14T01:19:25;7.03;;;5.72;;
12966;SDS011;6548;49.996;8.238;2022-08-14T01:22:10;8.27;;;5.45;;
12966;SDS011;6548;49.996;8.238;2022-08-14T01:24:35;6.55;;;5.60;;
12966;SDS011;6548;49.996;8.238;2022-08-14T01:27:01;8.05;;;5.95;;
12966;SDS011;6548;49.996;8.238;2022-08-14T01:29:29;9.70;;;5.28;;
12966;SDS011;6548;49.996;8.238;2022-08-14T01:32:01;5.78;;;5.25;;
12966;SDS011;6548;49.996;8.238;2022-08-14T01:34:28;6.22;;;5.53;;
12966;SDS011;6548;49.996;8.238;2022-08-14T01:36:57;8.10;;;6.03;;
12966;SDS011;6548;49.996;8.238;2022-08-14T01:39:23;7.25;;;5.75;;
12966;SDS011;6548;49.996;8.238;2022-08-14T01:41:49;7.47;;;6.70;;
12966;SDS011;6548;49.996;8.238;2022-08-14T01:44:25;8.45;;;6.55;;
12966;SDS011;6548;49.996;8.238;2022-08-14T01:46:53;8.32;;;6.47;;
12966;SDS011;6548;49.996;8.238;2022-08-14T01:49:21;7.30;;;6.22;;
12966;SDS011;6548;49.996;8.238;2022-08-14T01:51:47;7.55;;;6.68;;
12966;SDS011;6548;49.996;8.238;2022-08-14T01:54:18;7.97;;;6.55;;
12966;SDS011;6548;49.996;8.238;2022-08-14T01:56:47;7.53;;;6.43;;
12966;SDS011;6548;49.996;8.238;2022-08-14T02:01:41;6.85;;;6.13;;
12966;SDS011;6548;49.996;8.238;2022-08-14T02:04:08;8.02;;;6.30;;
12966;SDS011;6548;49.996;8.238;2022-08-14T02:06:34;7.05;;;6.35;;
12966;SDS011;6548;49.996;8.238;2022-08-14T02:09:03;8.80;;;6.90;;
12966;SDS011;6548;49.996;8.238;2022-08-14T02:11:29;8.45;;;6.88;;
12966;SDS011;6548;49.996;8.238;2022-08-14T02:13:57;6.80;;;5.40;;
12966;SDS011;6548;49.996;8.238;2022-08-14T02:16:25;7.32;;;6.55;;
12966;SDS011;6548;49.996;8.238;2022-08-14T02:18:57;10.55;;;6.68;;
12966;SDS011;6548;49.996;8.238;2022-08-14T02:21:24;7.80;;;6.13;;
12966;SDS011;6548;49.996;8.238;2022-08-14T02:23:52;6.60;;;5.90;;
12966;SDS011;6548;49.996;8.238;2022-08-14T02:26:21;6.80;;;5.93;;
12966;SDS011;6548;49.996;8.238;2022-08-14T02:28:50;8.38;;;6.45;;
12966;SDS011;6548;49.996;8.238;2022-08-14T02:31:23;7.13;;;6.43;;
12966;SDS011;6548;49.996;8.238;2022-08-14T02:33:53;7.82;;;7.03;;
12966;SDS011;6548;49.996;8.238;2022-08-14T02:36:18;7.57;;;6.85;;
12966;SDS011;6548;49.996;8.238;2022-08-14T02:38:44;8.13;;;6.60;;
12966;SDS011;6548;49.996;8.238;2022-08-14T02:41:10;7.25;;;6.55;;
12966;SDS011;6548;49.996;8.238;2022-08-14T02:43:37;7.78;;;6.03;;
12966;SDS011;6548;49.996;8.238;2022-08-14T02:46:07;7.85;;;6.78;;
12966;SDS011;6548;49.996;8.238;2022-08-14T02:48:35;6.88;;;6.18;;
12966;SDS011;6548;49.996;8.238;2022-08-14T02:51:04;7.40;;;6.75;;
12966;SDS011;6548;49.996;8.238;2022-08-14T02:53:36;7.32;;;6.40;;
12966;SDS011;6548;49.996;8.238;2022-08-14T02:56:04;8.63;;;6.63;;
12966;SDS011;6548;49.996;8.238;2022-08-14T02:58:31;8.23;;;6.63;;
12966;SDS011;6548;49.996;8.238;2022-08-14T03:01:01;6.83;;;6.13;;
12966;SDS011;6548;49.996;8.238;2022-08-14T03:03:27;6.93;;;6.22;;
12966;SDS011;6548;49.996;8.238;2022-08-14T03:05:53;8.23;;;6.38;;
12966;SDS011;6548;49.996;8.238;2022-08-14T03:08:18;7.70;;;6.90;;
12966;SDS011;6548;49.996;8.238;2022-08-14T03:10:44;8.10;;;6.70;;
12966;SDS011;6548;49.996;8.238;2022-08-14T03:13:11;7.82;;;7.03;;
12966;SDS011;6548;49.996;8.238;2022-08-14T03:15:36;8.77;;;7.07;;
12966;SDS011;6548;49.996;8.238;2022-08-14T03:18:08;7.47;;;6.57;;
12966;SDS011;6548;49.996;8.238;2022-08-14T03:20:35;7.60;;;6.90;;
12966;SDS011;6548;49.996;8.238;2022-08-14T03:23:00;8.15;;;7.03;;
12966;SDS011;6548;49.996;8.238;2022-08-14T03:25:26;9.88;;;6.65;;
12966;SDS011;6548;49.996;8.238;2022-08-14T03:27:57;9.35;;;7.40;;
12966;SDS011;6548;49.996;8.238;2022-08-14T03:30:27;7.28;;;6.57;;
12966;SDS011;6548;49.996;8.238;2022-08-14T03:32:55;9.80;;;6.72;;
12966;SDS011;6548;49.996;8.238;2022-08-14T03:35:21;8.10;;;7.03;;
12966;SDS011;6548;49.996;8.238;2022-08-14T03:37:47;8.30;;;7.45;;
12966;SDS011;6548;49.996;8.238;2022-08-14T03:40:16;8.90;;;7.30;;
12966;SDS011;6548;49.996;8.238;2022-08-14T03:42:46;8.25;;;6.70;;
12966;SDS011;6548;49.996;8.238;2022-08-14T03:45:12;8.77;;;7.68;;
12966;SDS011;6548;49.996;8.238;2022-08-14T03:47:41;8.60;;;7.03;;
12966;SDS011;6548;49.996;8.238;2022-08-14T03:50:08;8.48;;;7.03;;
12966;SDS011;6548;49.996;8.238;2022-08-14T03:52:35;8.70;;;6.68;;
12966;SDS011;6548;49.996;8.238;2022-08-14T03:55:02;9.40;;;6.75;;
12966;SDS011;6548;49.996;8.238;2022-08-14T03:57:33;8.23;;;6.90;;
12966;SDS011;6548;49.996;8.238;2022-08-14T03:59:59;10.15;;;7.55;;
12966;SDS011;6548;49.996;8.238;2022-08-14T04:02:30;10.27;;;8.32;;
12966;SDS011;6548;49.996;8.238;2022-08-14T04:04:56;10.18;;;8.05;;
12966;SDS011;6548;49.996;8.238;2022-08-14T04:07:21;8.85;;;7.65;;
12966;SDS011;6548;49.996;8.238;2022-08-14T04:09:47;11.75;;;7.57;;
12966;SDS011;6548;49.996;8.238;2022-08-14T04:12:12;9.13;;;7.43;;
12966;SDS011;6548;49.996;8.238;2022-08-14T04:14:38;8.70;;;7.30;;
12966;SDS011;6548;49.996;8.238;2022-08-14T04:17:04;9.52;;;7.82;;
12966;SDS011;6548;49.996;8.238;2022-08-14T04:19:29;8.07;;;7.28;;
12966;SDS011;6548;49.996;8.238;2022-08-14T04:21:55;9.52;;;7.88;;
12966;SDS011;6548;49.996;8.238;2022-08-14T04:24:20;10.35;;;8.02;;
12966;SDS011;6548;49.996;8.238;2022-08-14T04:26:46;9.63;;;7.95;;
12966;SDS011;6548;49.996;8.238;2022-08-14T04:29:11;8.77;;;7.47;;
12966;SDS011;6548;49.996;8.238;2022-08-14T04:31:37;8.00;;;7.13;;
12966;SDS011;6548;49.996;8.238;2022-08-14T04:34:03;8.50;;;7.68;;
12966;SDS011;6548;49.996;8.238;2022-08-14T04:36:29;9.90;;;8.35;;
12966;SDS011;6548;49.996;8.238;2022-08-14T04:38:56;8.88;;;7.97;;
12966;SDS011;6548;49.996;8.238;2022-08-14T04:41:41;10.38;;;7.68;;
12966;SDS011;6548;49.996;8.238;2022-08-14T04:44:25;9.05;;;7.70;;
12966;SDS011;6548;49.996;8.238;2022-08-14T04:46:50;8.13;;;7.32;;
12966;SDS011;6548;49.996;8.238;2022-08-14T04:49:35;9.82;;;7.93;;
12966;SDS011;6548;49.996;8.238;2022-08-14T04:52:00;9.02;;;8.07;;
12966;SDS011;6548;49.996;8.238;2022-08-14T04:54:28;8.35;;;7.50;;
12966;SDS011;6548;49.996;8.238;2022-08-14T04:56:54;9.35;;;7.75;;
12966;SDS011;6548;49.996;8.238;2022-08-14T04:59:20;9.20;;;8.27;;
12966;SDS011;6548;49.996;8.238;2022-08-14T05:01:47;9.43;;;7.78;;
12966;SDS011;6548;49.996;8.238;2022-08-14T05:04:13;9.20;;;7.97;;
12966;SDS011;6548;49.996;8.238;2022-08-14T05:06:39;8.30;;;7.15;;
12966;SDS011;6548;49.996;8.238;2022-08-14T05:09:06;9.93;;;8.93;;
12966;SDS011;6548;49.996;8.238;2022-08-14T05:11:32;8.65;;;7.78;;
12966;SDS011;6548;49.996;8.238;2022-08-14T05:13:59;12.68;;;8.38;;
12966;SDS011;6548;49.996;8.238;2022-08-14T05:22:13;8.90;;;8.00;;
12966;SDS011;6548;49.996;8.238;2022-08-14T05:24:40;8.27;;;7.45;;
12966;SDS011;6548;49.996;8.238;2022-08-14T05:27:06;10.50;;;7.82;;
12966;SDS011;6548;49.996;8.238;2022-08-14T05:29:33;9.77;;;8.65;;
12966;SDS011;6548;49.996;8.238;2022-08-14T05:32:00;9.32;;;8.30;;
12966;SDS011;6548;49.996;8.238;2022-08-14T05:34:31;11.32;;;8.60;;
12966;SDS011;6548;49.996;8.238;2022-08-14T05:36:58;9.43;;;8.43;;
12966;SDS011;6548;49.996;8.238;2022-08-14T05:39:24;9.57;;;8.60;;
12966;SDS011;6548;49.996;8.238;2022-08-14T05:41:50;9.02;;;8.07;;
12966;SDS011;6548;49.996;8.238;2022-08-14T05:44:15;10.25;;;7.80;;
12966;SDS011;6548;49.996;8.238;2022-08-14T05:46:41;10.02;;;7.68;;
12966;SDS011;6548;49.996;8.238;2022-08-14T05:49:06;9.07;;;8.18;;
12966;SDS011;6548;49.996;8.238;2022-08-14T05:51:32;9.30;;;7.80;;
12966;SDS011;6548;49.996;8.238;2022-08-14T05:53:58;9.27;;;8.13;;
12966;SDS011;6548;49.996;8.238;2022-08-14T05:56:24;9.27;;;8.38;;
12966;SDS011;6548;49.996;8.238;2022-08-14T05:58:51;9.57;;;8.68;;
12966;SDS011;6548;49.996;8.238;2022-08-14T06:01:16;10.00;;;8.15;;
12966;SDS011;6548;49.996;8.238;2022-08-14T06:03:42;10.82;;;8.25;;
12966;SDS011;6548;49.996;8.238;2022-08-14T06:06:08;9.07;;;8.13;;
12966;SDS011;6548;49.996;8.238;2022-08-14T06:08:33;10.20;;;9.02;;
12966;SDS011;6548;49.996;8.238;2022-08-14T06:11:00;9.02;;;8.13;;
12966;SDS011;6548;49.996;8.238;2022-08-14T06:13:30;9.88;;;8.93;;
12966;SDS011;6548;49.996;8.238;2022-08-14T06:16:05;13.70;;;9.02;;
12966;SDS011;6548;49.996;8.238;2022-08-14T06:18:32;9.23;;;8.30;;
12966;SDS011;6548;49.996;8.238;2022-08-14T06:20:59;11.18;;;9.02;;
12966;SDS011;6548;49.996;8.238;2022-08-14T06:23:28;9.40;;;8.48;;
12966;SDS011;6548;49.996;8.238;2022-08-14T06:25:54;9.27;;;8.30;;
12966;SDS011;6548;49.996;8.238;2022-08-14T06:28:21;8.77;;;7.60;;
12966;SDS011;6548;49.996;8.238;2022-08-14T06:30:47;10.02;;;8.20;;
12966;SDS011;6548;49.996;8.238;2022-08-14T06:33:14;9.48;;;7.82;;
12966;SDS011;6548;49.996;8.238;2022-08-14T06:35:41;9.20;;;8.30;;
12966;SDS011;6548;49.996;8.238;2022-08-14T06:38:07;8.85;;;7.97;;
12966;SDS011;6548;49.996;8.238;2022-08-14T06:40:33;9.52;;;8.57;;
12966;SDS011;6548;49.996;8.238;2022-08-14T06:43:02;9.88;;;8.30;;
12966;SDS011;6548;49.996;8.238;2022-08-14T06:45:32;8.80;;;7.90;;
12966;SDS011;6548;49.996;8.238;2022-08-14T06:48:00;9.27;;;8.23;;
12966;SDS011;6548;49.996;8.238;2022-08-14T06:50:27;10.48;;;8.18;;
12966;SDS011;6548;49.996;8.238;2022-08-14T06:52:53;9.35;;;8.45;;
12966;SDS011;6548;49.996;8.238;2022-08-14T06:55:19;8.30;;;7.50;;
12966;SDS011;6548;49.996;8.238;2022-08-14T06:57:45;9.45;;;8.00;;
12966;SDS011;6548;49.996;8.238;2022-08-14T07:00:16;8.68;;;7.88;;
12966;SDS011;6548;49.996;8.238;2022-08-14T07:02:44;10.68;;;7.95;;
12966;SDS011;6548;49.996;8.238;2022-08-14T07:05:29;8.90;;;8.05;;
12966;SDS011;6548;49.996;8.238;2022-08-14T07:08:14;9.02;;;8.23;;
12966;SDS011;6548;49.996;8.238;2022-08-14T07:10:51;10.68;;;8.38;;
12966;SDS011;6548;49.996;8.238;2022-08-14T07:13:18;8.30;;;7.57;;
12966;SDS011;6548;49.996;8.238;2022-08-14T07:15:45;8.43;;;7.20;;
12966;SDS011;6548;49.996;8.238;2022-08-14T07:18:14;8.57;;;7.68;;
12966;SDS011;6548;49.996;8.238;2022-08-14T07:20:53;8.27;;;7.43;;
12966;SDS011;6548;49.996;8.238;2022-08-14T07:23:20;8.55;;;7.68;;
12966;SDS011;6548;49.996;8.238;2022-08-14T07:25:50;9.93;;;7.70;;
12966;SDS011;6548;49.996;8.238;2022-08-14T07:28:18;8.73;;;7.93;;
12966;SDS011;6548;49.996;8.238;2022-08-14T07:30:47;7.70;;;6.90;;
12966;SDS011;6548;49.996;8.238;2022-08-14T07:33:13;9.23;;;8.35;;
12966;SDS011;6548;49.996;8.238;2022-08-14T07:35:39;8.30;;;7.32;;
12966;SDS011;6548;49.996;8.238;2022-08-14T07:38:06;8.10;;;7.40;;
12966;SDS011;6548;49.996;8.238;2022-08-14T07:40:32;7.93;;;7.13;;
12966;SDS011;6548;49.996;8.238;2022-08-14T07:42:58;8.90;;;8.05;;
12966;SDS011;6548;49.996;8.238;2022-08-14T07:45:25;8.65;;;7.85;;
12966;SDS011;6548;49.996;8.238;2022-08-14T07:47:52;9.02;;;8.13;;
12966;SDS011;6548;49.996;8.238;2022-08-14T07:50:20;8.80;;;7.90;;
12966;SDS011;6548;49.996;8.238;2022-08-14T07:52:46;8.45;;;7.15;;
12966;SDS011;6548;49.996;8.238;2022-08-14T07:55:13;8.23;;;7.30;;
12966;SDS011;6548;49.996;8.238;2022-08-14T07:57:41;8.27;;;7.43;;
12966;SDS011;6548;49.996;8.238;2022-08-14T08:02:59;8.75;;;7.10;;
12966;SDS011;6548;49.996;8.238;2022-08-14T08:05:27;9.63;;;7.80;;
12966;SDS011;6548;49.996;8.238;2022-08-14T08:07:53;9.52;;;7.22;;
12966;SDS011;6548;49.996;8.238;2022-08-14T08:10:19;7.80;;;7.00;;
12966;SDS011;6548;49.996;8.238;2022-08-14T08:13:03;8.88;;;7.55;;
12966;SDS011;6548;49.996;8.238;2022-08-14T08:15:32;9.02;;;8.05;;
12966;SDS011;6548;49.996;8.238;2022-08-14T08:18:00;8.23;;;7.47;;
12966;SDS011;6548;49.996;8.238;2022-08-14T08:20:28;8.30;;;7.60;;
12966;SDS011;6548;49.996;8.238;2022-08-14T08:22:55;8.15;;;7.35;;
12966;SDS011;6548;49.996;8.238;2022-08-14T08:25:23;8.07;;;7.38;;
12966;SDS011;6548;49.996;8.238;2022-08-14T08:28:10;8.18;;;7.03;;
12966;SDS011;6548;49.996;8.238;2022-08-14T08:30:38;8.05;;;7.32;;
12966;SDS011;6548;49.996;8.238;2022-08-14T08:33:05;8.35;;;7.57;;
12966;SDS011;6548;49.996;8.238;2022-08-14T08:35:33;7.68;;;6.88;;
12966;SDS011;6548;49.996;8.238;2022-08-14T08:38:00;7.70;;;6.90;;
12966;SDS011;6548;49.996;8.238;2022-08-14T08:40:30;7.25;;;6.65;;
12966;SDS011;6548;49.996;8.238;2022-08-14T08:43:22;8.15;;;6.88;;
12966;SDS011;6548;49.996;8.238;2022-08-14T08:45:58;7.35;;;6.72;;
12966;SDS011;6548;49.996;8.238;2022-08-14T08:51:30;7.10;;;6.40;;
12966;SDS011;6548;49.996;8.238;2022-08-14T09:01:58;12.07;;;6.93;;
12966;SDS011;6548;49.996;8.238;2022-08-14T09:04:29;7.53;;;6.90;;
12966;SDS011;6548;49.996;8.238;2022-08-14T09:06:58;7.00;;;6.30;;
12966;SDS011;6548;49.996;8.238;2022-08-14T09:09:28;8.23;;;6.45;;
12966;SDS011;6548;49.996;8.238;2022-08-14T09:11:56;6.13;;;5.50;;
12966;SDS011;6548;49.996;8.238;2022-08-14T09:14:23;16.88;;;7.22;;
12966;SDS011;6548;49.996;8.238;2022-08-14T09:16:50;7.18;;;6.47;;
12966;SDS011;6548;49.996;8.238;2022-08-14T09:19:16;8.15;;;7.45;;
12966;SDS011;6548;49.996;8.238;2022-08-14T09:21:42;7.03;;;6.43;;
12966;SDS011;6548;49.996;8.238;2022-08-14T09:24:08;7.13;;;6.45;;
12966;SDS011;6548;49.996;8.238;2022-08-14T09:26:35;7.47;;;6.63;;
12966;SDS011;6548;49.996;8.238;2022-08-14T09:29:02;7.45;;;6.80;;
12966;SDS011;6548;49.996;8.238;2022-08-14T09:31:28;7.38;;;6.57;;
12966;SDS011;6548;49.996;8.238;2022-08-14T09:37:23;6.90;;;6.30;;
12966;SDS011;6548;49.996;8.238;2022-08-14T09:45:17;6.03;;;5.43;;
12966;SDS011;6548;49.996;8.238;2022-08-14T09:47:54;7.00;;;6.30;;
12966;SDS011;6548;49.996;8.238;2022-08-14T09:53:35;6.40;;;5.15;;
12966;SDS011;6548;49.996;8.238;2022-08-14T09:56:01;6.63;;;5.95;;
12966;SDS011;6548;49.996;8.238;2022-08-14T09:58:38;6.40;;;5.80;;
12966;SDS011;6548;49.996;8.238;2022-08-14T10:01:08;6.32;;;5.82;;
12966;SDS011;6548;49.996;8.238;2022-08-14T10:06:18;7.47;;;5.95;;
12966;SDS011;6548;49.996;8.238;2022-08-14T10:08:49;7.20;;;6.50;;
12966;SDS011;6548;49.996;8.238;2022-08-14T10:13:55;6.30;;;5.55;;
12966;SDS011;6548;49.996;8.238;2022-08-14T10:16:22;9.48;;;6.03;;
12966;SDS011;6548;49.996;8.238;2022-08-14T10:19:27;5.85;;;5.40;;
12966;SDS011;6548;49.996;8.238;2022-08-14T10:22:00;6.03;;;5.47;;
12966;SDS011;6548;49.996;8.238;2022-08-14T10:24:37;5.88;;;5.43;;
12966;SDS011;6548;49.996;8.238;2022-08-14T10:29:41;6.28;;;5.78;;
12966;SDS011;6548;49.996;8.238;2022-08-14T10:32:07;6.43;;;5.82;;
12966;SDS011;6548;49.996;8.238;2022-08-14T10:34:36;6.95;;;6.28;;
12966;SDS011;6548;49.996;8.238;2022-08-14T10:37:13;6.55;;;5.72;;
12966;SDS011;6548;49.996;8.238;2022-08-14T10:39:41;6.70;;;5.38;;
12966;SDS011;6548;49.996;8.238;2022-08-14T10:42:12;5.38;;;4.90;;
12966;SDS011;6548;49.996;8.238;2022-08-14T10:44:40;4.93;;;4.40;;
12966;SDS011;6548;49.996;8.238;2022-08-14T10:47:11;5.45;;;4.95;;
12966;SDS011;6548;49.996;8.238;2022-08-14T10:49:42;5.57;;;4.75;;
12966;SDS011;6548;49.996;8.238;2022-08-14T10:52:22;5.72;;;5.22;;
12966;SDS011;6548;49.996;8.238;2022-08-14T10:54:49;6.50;;;4.70;;
12966;SDS011;6548;49.996;8.238;2022-08-14T10:57:19;6.65;;;4.45;;
12966;SDS011;6548;49.996;8.238;2022-08-14T10:59:47;5.38;;;4.90;;
12966;SDS011;6548;49.996;8.238;2022-08-14T11:02:18;5.55;;;5.05;;
12966;SDS011;6548;49.996;8.238;2022-08-14T11:05:13;5.63;;;4.95;;
12966;SDS011;6548;49.996;8.238;2022-08-14T11:07:53;4.88;;;4.53;;
12966;SDS011;6548;49.996;8.238;2022-08-14T11:10:21;4.80;;;4.30;;
12966;SDS011;6548;49.996;8.238;2022-08-14T11:12:53;6.10;;;4.88;;
12966;SDS011;6548;49.996;8.238;2022-08-14T11:15:22;4.38;;;3.88;;
12966;SDS011;6548;49.996;8.238;2022-08-14T11:17:49;6.15;;;4.90;;
12966;SDS011;6548;49.996;8.238;2022-08-14T11:20:19;4.95;;;4.50;;
12966;SDS011;6548;49.996;8.238;2022-08-14T11:22:48;4.82;;;4.35;;
12966;SDS011;6548;49.996;8.238;2022-08-14T11:25:18;5.70;;;4.38;;
12966;SDS011;6548;49.996;8.238;2022-08-14T11:27:47;5.78;;;4.63;;
12966;SDS011;6548;49.996;8.238;2022-08-14T11:30:15;6.45;;;4.82;;
12966;SDS011;6548;49.996;8.238;2022-08-14T11:32:47;5.32;;;4.75;;
12966;SDS011;6548;49.996;8.238;2022-08-14T11:35:14;4.95;;;4.47;;
12966;SDS011;6548;49.996;8.238;2022-08-14T11:37:48;5.30;;;4.80;;
12966;SDS011;6548;49.996;8.238;2022-08-14T11:40:14;6.27;;;4.97;;
12966;SDS011;6548;49.996;8.238;2022-08-14T11:42:41;5.25;;;4.75;;
12966;SDS011;6548;49.996;8.238;2022-08-14T11:45:14;4.95;;;4.55;;
12966;SDS011;6548;49.996;8.238;2022-08-14T11:47:40;5.57;;;5.05;;
12966;SDS011;6548;49.996;8.238;2022-08-14T11:50:16;5.57;;;5.07;;
12966;SDS011;6548;49.996;8.238;2022-08-14T11:52:47;5.32;;;4.82;;
12966;SDS011;6548;49.996;8.238;2022-08-14T11:55:13;5.78;;;5.05;;
12966;SDS011;6548;49.996;8.238;2022-08-14T11:57:40;5.35;;;4.85;;
12966;SDS011;6548;49.996;8.238;2022-08-14T12:00:09;5.15;;;4.75;;
12966;SDS011;6548;49.996;8.238;2022-08-14T12:02:36;5.70;;;5.20;;
12966;SDS011;6548;49.996;8.238;2022-08-14T12:05:14;5.20;;;4.80;;
12966;SDS011;6548;49.996;8.238;2022-08-14T12:07:46;5.28;;;4.88;;
12966;SDS011;6548;49.996;8.238;2022-08-14T12:10:13;6.65;;;5.07;;
12966;SDS011;6548;49.996;8.238;2022-08-14T12:12:41;5.03;;;4.63;;
12966;SDS011;6548;49.996;8.238;2022-08-14T12:15:07;5.60;;;4.45;;
12966;SDS011;6548;49.996;8.238;2022-08-14T12:17:54;5.80;;;4.38;;
12966;SDS011;6548;49.996;8.238;2022-08-14T12:20:27;5.30;;;4.80;;
12966;SDS011;6548;49.996;8.238;2022-08-14T12:22:58;5.28;;;4.78;;
12966;SDS011;6548;49.996;8.238;2022-08-14T12:25:25;4.97;;;4.50;;
12966;SDS011;6548;49.996;8.238;2022-08-14T12:27:51;6.88;;;5.13;;
12966;SDS011;6548;49.996;8.238;2022-08-14T12:32:50;5.22;;;4.72;;
12966;SDS011;6548;49.996;8.238;2022-08-14T12:35:16;5.32;;;4.68;;
12966;SDS011;6548;49.996;8.238;2022-08-14T12:37:49;7.22;;;5.20;;
12966;SDS011;6548;49.996;8.238;2022-08-14T12:40:15;6.18;;;5.00;;
12966;SDS011;6548;49.996;8.238;2022-08-14T12:42:43;5.43;;;4.95;;
12966;SDS011;6548;49.996;8.238;2022-08-14T12:45:09;6.10;;;4.60;;
12966;SDS011;6548;49.996;8.238;2022-08-14T12:47:38;5.40;;;4.72;;
12966;SDS011;6548;49.996;8.238;2022-08-14T12:50:05;5.03;;;4.53;;
12966;SDS011;6548;49.996;8.238;2022-08-14T12:55:08;4.70;;;4.30;;
12966;SDS011;6548;49.996;8.238;2022-08-14T12:57:42;5.90;;;4.75;;
12966;SDS011;6548;49.996;8.238;2022-08-14T13:00:16;5.75;;;5.15;;
12966;SDS011;6548;49.996;8.238;2022-08-14T13:02:48;7.30;;;4.72;;
12966;SDS011;6548;49.996;8.238;2022-08-14T13:05:15;5.95;;;5.07;;
12966;SDS011;6548;49.996;8.238;2022-08-14T13:07:42;5.03;;;4.50;;
12966;SDS011;6548;49.996;8.238;2022-08-14T13:10:11;5.65;;;5.13;;
12966;SDS011;6548;49.996;8.238;2022-08-14T13:12:40;6.80;;;4.95;;
12966;SDS011;6548;49.996;8.238;2022-08-14T13:15:07;5.95;;;5.35;;
12966;SDS011;6548;49.996;8.238;2022-08-14T13:17:45;6.15;;;5.55;;
12966;SDS011;6548;49.996;8.238;2022-08-14T13:20:13;5.00;;;4.57;;
12966;SDS011;6548;49.996;8.238;2022-08-14T13:22:42;5.87;;;4.70;;
12966;SDS011;6548;49.996;8.238;2022-08-14T13:25:09;4.47;;;3.80;;
12966;SDS011;6548;49.996;8.238;2022-08-14T13:27:37;5.47;;;4.55;;
12966;SDS011;6548;49.996;8.238;2022-08-14T13:30:06;5.00;;;4.60;;
12966;SDS011;6548;49.996;8.238;2022-08-14T13:32:34;4.80;;;4.40;;
12966;SDS011;6548;49.996;8.238;2022-08-14T13:35:03;3.95;;;3.60;;
12966;SDS011;6548;49.996;8.238;2022-08-14T13:37:30;4.78;;;4.38;;
12966;SDS011;6548;49.996;8.238;2022-08-14T13:39:55;4.45;;;4.03;;
12966;SDS011;6548;49.996;8.238;2022-08-14T13:42:21;4.47;;;4.07;;
12966;SDS011;6548;49.996;8.238;2022-08-14T13:44:48;4.93;;;3.80;;
12966;SDS011;6548;49.996;8.238;2022-08-14T13:47:15;4.65;;;3.85;;
12966;SDS011;6548;49.996;8.238;2022-08-14T13:49:44;4.30;;;4.00;;
12966;SDS011;6548;49.996;8.238;2022-08-14T13:52:15;4.43;;;4.03;;
12966;SDS011;6548;49.996;8.238;2022-08-14T13:54:45;4.32;;;3.92;;
12966;SDS011;6548;49.996;8.238;2022-08-14T13:57:13;4.22;;;3.90;;
12966;SDS011;6548;49.996;8.238;2022-08-14T13:59:46;4.50;;;4.10;;
12966;SDS011;6548;49.996;8.238;2022-08-14T14:02:13;4.30;;;3.88;;
12966;SDS011;6548;49.996;8.238;2022-08-14T14:04:42;4.15;;;3.85;;
12966;SDS011;6548;49.996;8.238;2022-08-14T14:07:12;5.23;;;3.90;;
12966;SDS011;6548;49.996;8.238;2022-08-14T14:09:41;3.85;;;3.58;;
12966;SDS011;6548;49.996;8.238;2022-08-14T14:12:11;4.13;;;3.72;;
12966;SDS011;6548;49.996;8.238;2022-08-14T14:14:38;4.63;;;3.78;;
12966;SDS011;6548;49.996;8.238;2022-08-14T14:17:05;4.10;;;3.70;;
12966;SDS011;6548;49.996;8.238;2022-08-14T14:19:32;3.80;;;3.50;;
12966;SDS011;6548;49.996;8.238;2022-08-14T14:21:59;3.92;;;3.28;;
12966;SDS011;6548;49.996;8.238;2022-08-14T14:24:26;4.53;;;4.13;;
12966;SDS011;6548;49.996;8.238;2022-08-14T14:26:53;4.00;;;3.67;;
12966;SDS011;6548;49.996;8.238;2022-08-14T14:29:21;3.85;;;3.45;;
12966;SDS011;6548;49.996;8.238;2022-08-14T14:31:49;3.67;;;3.38;;
12966;SDS011;6548;49.996;8.238;2022-08-14T14:34:16;2.85;;;2.65;;
12966;SDS011;6548;49.996;8.238;2022-08-14T14:36:43;3.53;;;3.22;;
12966;SDS011;6548;49.996;8.238;2022-08-14T14:39:09;4.32;;;3.92;;
12966;SDS011;6548;49.996;8.238;2022-08-14T14:41:36;3.70;;;3.50;;
12966;SDS011;6548;49.996;8.238;2022-08-14T14:44:05;4.80;;;3.50;;
12966;SDS011;6548;49.996;8.238;2022-08-14T14:46:35;3.85;;;3.55;;
12966;SDS011;6548;49.996;8.238;2022-08-14T14:49:03;4.00;;;3.60;;
12966;SDS011;6548;49.996;8.238;2022-08-14T14:51:31;4.03;;;3.72;;
12966;SDS011;6548;49.996;8.238;2022-08-14T14:53:56;3.58;;;3.28;;
12966;SDS011;6548;49.996;8.238;2022-08-14T14:56:22;4.72;;;3.55;;
12966;SDS011;6548;49.996;8.238;2022-08-14T14:58:49;4.30;;;3.33;;
12966;SDS011;6548;49.996;8.238;2022-08-14T15:01:15;5.43;;;3.83;;
12966;SDS011;6548;49.996;8.238;2022-08-14T15:03:47;4.97;;;3.75;;
12966;SDS011;6548;49.996;8.238;2022-08-14T15:06:13;3.88;;;3.58;;
12966;SDS011;6548;49.996;8.238;2022-08-14T15:08:39;3.85;;;3.33;;
12966;SDS011;6548;49.996;8.238;2022-08-14T15:11:06;4.20;;;3.90;;
12966;SDS011;6548;49.996;8.238;2022-08-14T15:13:32;3.63;;;3.33;;
12966;SDS011;6548;49.996;8.238;2022-08-14T15:16:01;3.88;;;3.58;;
12966;SDS011;6548;49.996;8.238;2022-08-14T15:18:31;3.90;;;3.50;;
12966;SDS011;6548;49.996;8.238;2022-08-14T15:20:56;4.22;;;3.92;;
12966;SDS011;6548;49.996;8.238;2022-08-14T15:23:24;4.60;;;3.90;;
12966;SDS011;6548;49.996;8.238;2022-08-14T15:25:50;4.10;;;3.45;;
12966;SDS011;6548;49.996;8.238;2022-08-14T15:28:16;3.67;;;3.38;;
12966;SDS011;6548;49.996;8.238;2022-08-14T15:30:43;4.00;;;3.60;;
12966;SDS011;6548;49.996;8.238;2022-08-14T15:33:10;3.40;;;2.90;;
12966;SDS011;6548;49.996;8.238;2022-08-14T15:35:36;3.85;;;3.38;;
12966;SDS011;6548;49.996;8.238;2022-08-14T15:38:02;3.65;;;3.35;;
12966;SDS011;6548;49.996;8.238;2022-08-14T15:40:39;3.55;;;3.25;;
12966;SDS011;6548;49.996;8.238;2022-08-14T15:43:09;4.97;;;2.95;;
12966;SDS011;6548;49.996;8.238;2022-08-14T15:45:39;3.22;;;2.88;;
12966;SDS011;6548;49.996;8.238;2022-08-14T15:48:05;3.30;;;3.00;;
12966;SDS011;6548;49.996;8.238;2022-08-14T15:50:32;5.43;;;3.42;;
12966;SDS011;6548;49.996;8.238;2022-08-14T15:52:58;4.00;;;3.60;;
12966;SDS011;6548;49.996;8.238;2022-08-14T15:55:23;3.75;;;3.45;;